Time;durP1;ratioP1;P1;durP2;ratioP2;P2;SDS_P1;SDS_P2;PMS_P1;PMS_P2;Temp;Humidity;BMP_temperature;BMP_pressure;BME280_temperature;BME280_humidity;BME280_pressure;Samples;Min_cycle;Max_cycle;Signal;HPM_P1;HPM_P2
2022/11/29 00:00:46;;;;;;;;;51.67;39.00;;;;;7.57;91.14;99111.50;5008005;28;45712;-72
2022/11/29 00:03:12;;;;;;;;;54.00;45.00;;;;;7.58;91.05;99113.22;5004341;28;45391;-72
2022/11/29 00:05:37;;;;;;;;;58.33;43.67;;;;;7.59;91.16;99114.94;5025097;28;46350;-72
2022/11/29 00:08:03;;;;;;;;;49.33;42.33;;;;;7.60;91.11;99116.66;5010911;28;45492;-72
2022/11/29 00:10:28;;;;;;;;;48.00;35.33;;;;;7.61;91.28;99121.00;5011453;28;45395;-72
2022/11/29 00:12:54;;;;;;;;;52.33;42.00;;;;;7.60;90.77;99111.41;5011823;28;45608;-73
2022/11/29 00:15:19;;;;;;;;;49.00;41.67;;;;;7.59;90.83;99113.19;5004645;28;46317;-72
2022/11/29 00:17:44;;;;;;;;;54.67;40.67;;;;;7.57;90.76;99101.88;5003636;28;45420;-72
2022/11/29 00:20:11;;;;;;;;;52.00;40.33;;;;;7.57;90.76;99106.25;5008842;28;45475;-72
2022/11/29 00:22:36;;;;;;;;;54.67;44.67;;;;;7.55;90.70;99102.81;5008292;28;45527;-72
2022/11/29 00:25:04;;;;;;;;;59.33;44.00;;;;;7.55;90.95;99103.66;5004652;28;45321;-72
2022/11/29 00:27:29;;;;;;;;;50.33;41.33;;;;;7.54;91.27;99096.69;5006997;28;45301;-72
2022/11/29 00:29:54;;;;;;;;;49.67;41.33;;;;;7.55;90.88;99097.56;5007188;28;45402;-73
2022/11/29 00:32:20;;;;;;;;;45.67;38.33;;;;;7.54;91.05;99090.63;5040686;28;45858;-72
2022/11/29 00:34:45;;;;;;;;;51.33;41.33;;;;;7.54;91.08;99086.19;5003276;28;46179;-73
2022/11/29 00:37:11;;;;;;;;;49.00;41.67;;;;;7.56;90.94;99086.16;5007570;28;45420;-72
2022/11/29 00:39:36;;;;;;;;;52.67;43.00;;;;;7.57;90.98;99093.13;5013858;28;45350;-72
2022/11/29 00:42:02;;;;;;;;;49.33;42.00;;;;;7.57;91.00;99087.88;5004557;28;45622;-72
2022/11/29 00:44:27;;;;;;;;;47.33;38.00;;;;;7.58;90.79;99084.34;5007278;28;46367;-72
2022/11/29 00:46:53;;;;;;;;;55.67;41.67;;;;;7.60;90.58;99082.56;5006980;28;45390;-72
2022/11/29 00:49:18;;;;;;;;;42.33;38.00;;;;;7.60;90.84;99077.31;5044629;28;45338;-72
2022/11/29 00:51:44;;;;;;;;;58.67;45.33;;;;;7.62;90.77;99080.75;5007347;28;45497;-72
2022/11/29 00:54:09;;;;;;;;;52.00;43.00;;;;;7.63;90.81;99079.84;4994800;28;45555;-72
2022/11/29 00:56:35;;;;;;;;;57.00;43.33;;;;;7.64;90.65;99084.19;5004438;28;45473;-72
2022/11/29 00:59:00;;;;;;;;;51.67;41.33;;;;;7.63;90.76;99075.47;4994951;28;45428;-72
2022/11/29 01:01:25;;;;;;;;;52.00;41.00;;;;;7.63;90.65;99078.09;5007164;28;45637;-72
2022/11/29 01:03:52;;;;;;;;;50.67;43.00;;;;;7.65;90.73;99084.16;5006231;28;45638;-72
2022/11/29 01:06:18;;;;;;;;;51.00;42.33;;;;;7.65;90.68;99084.16;5009807;28;45494;-72
2022/11/29 01:08:47;;;;;;;;;53.00;42.00;;;;;7.64;90.87;99076.31;5011606;28;45367;-72
2022/11/29 01:11:18;;;;;;;;;55.33;45.00;;;;;7.63;90.40;99077.22;5007958;28;45510;-72
2022/11/29 01:13:44;;;;;;;;;56.33;44.67;;;;;7.63;90.42;99077.22;5004664;28;46514;-72
2022/11/29 01:16:10;;;;;;;;;51.67;41.67;;;;;7.62;90.57;99072.88;5007314;28;45342;-72
2022/11/29 01:18:36;;;;;;;;;53.67;41.00;;;;;7.59;90.43;99065.94;5003440;28;45629;-71
2022/11/29 01:21:14;;;;;;;;;52.33;42.33;;;;;7.56;90.41;99071.28;5025261;28;45857;-72
2022/11/29 01:23:40;;;;;;;;;49.33;41.33;;;;;7.54;90.48;99072.25;5011080;28;46331;-72
2022/11/29 01:26:11;;;;;;;;;51.00;41.33;;;;;7.51;90.24;99080.22;5040933;28;45598;-72
2022/11/29 01:28:38;;;;;;;;;52.67;43.67;;;;;7.46;90.62;99075.09;5007255;28;45508;-72
2022/11/29 01:31:18;;;;;;;;;55.67;45.00;;;;;7.43;90.55;99080.41;5008696;28;45476;-72
2022/11/29 01:33:44;;;;;;;;;54.33;45.33;;;;;7.39;90.78;99080.53;4998895;28;48668;-72
2022/11/29 01:36:11;;;;;;;;;55.33;45.00;;;;;7.36;90.64;99081.50;5033168;28;45414;-72
2022/11/29 01:38:37;;;;;;;;;55.00;45.67;;;;;7.34;90.50;99075.44;5005975;28;45386;-72
2022/11/29 01:41:11;;;;;;;;;55.33;45.33;;;;;7.32;90.87;99074.63;5004566;28;45471;-72
2022/11/29 01:44:04;;;;;;;;;55.67;45.67;;;;;7.29;90.76;99072.94;5008795;28;45879;-72
2022/11/29 01:46:35;;;;;;;;;53.33;43.33;;;;;7.28;90.57;99081.69;5042040;28;45393;-71
2022/11/29 01:49:15;;;;;;;;;55.00;45.67;;;;;7.23;90.39;99077.47;5011675;28;45395;-72
2022/11/29 01:51:47;;;;;;;;;52.00;41.00;;;;;7.21;90.38;99079.28;5013244;28;45437;-72
2022/11/29 01:54:13;;;;;;;;;51.33;43.67;;;;;7.19;90.73;99070.63;5044977;28;45536;-72
2022/11/29 01:56:40;;;;;;;;;48.00;38.00;;;;;7.17;90.91;99068.03;5024943;28;45728;-72
2022/11/29 01:59:10;;;;;;;;;59.00;45.67;;;;;7.15;90.82;99076.84;5014137;28;45622;-72
2022/11/29 02:01:36;;;;;;;;;44.00;38.67;;;;;7.13;90.97;99074.25;4996998;28;45528;-72
2022/11/29 02:04:03;;;;;;;;;52.00;42.00;;;;;7.14;90.98;99073.34;4998400;28;46348;-72
2022/11/29 02:06:29;;;;;;;;;42.67;37.33;;;;;7.15;91.09;99080.31;5003304;28;45451;-72
2022/11/29 02:08:55;;;;;;;;;43.33;38.33;;;;;7.14;91.05;99069.88;5014671;28;45677;-72
2022/11/29 02:12:02;;;;;;;;;42.33;38.00;;;;;7.15;91.08;99077.69;5010061;28;45443;-72
2022/11/29 02:14:27;;;;;;;;;44.67;40.67;;;;;7.15;91.13;99077.69;5004409;28;45444;-72
2022/11/29 02:17:19;;;;;;;;;48.00;39.67;;;;;7.16;91.05;99076.78;5039495;28;45475;-72
2022/11/29 02:20:06;;;;;;;;;50.00;40.00;;;;;7.19;91.12;99081.97;5005486;28;45402;-72
2022/11/29 02:22:54;;;;;;;;;45.00;40.33;;;;;7.22;91.20;99096.72;5003618;28;45567;-72
2022/11/29 02:25:45;;;;;;;;;52.00;39.33;;;;;7.23;90.66;99101.94;5013222;28;45549;-72
2022/11/29 02:28:35;;;;;;;;;52.67;41.33;;;;;7.20;90.73;99099.41;5006721;28;45408;-72
2022/11/29 02:31:01;;;;;;;;;59.67;45.33;;;;;7.12;91.39;99098.75;5013169;28;45617;-72
2022/11/29 02:33:38;;;;;;;;;46.67;41.33;;;;;7.03;92.10;99106.88;5012209;28;45499;-72
2022/11/29 02:36:22;;;;;;;;;52.00;41.00;;;;;6.92;92.87;99108.88;5011445;28;46705;-72
2022/11/29 02:39:25;;;;;;;;;53.33;42.00;;;;;6.82;93.01;99099.56;5013790;28;45384;-72
2022/11/29 02:42:20;;;;;;;;;53.67;41.67;;;;;6.77;93.63;99099.66;5039470;28;45444;-72
2022/11/29 02:44:53;;;;;;;;;49.67;39.33;;;;;6.72;94.12;99095.41;4989258;28;45446;-72
2022/11/29 02:47:21;;;;;;;;;50.67;40.00;;;;;6.70;94.46;99098.09;5004348;28;46075;-71
2022/11/29 02:50:03;;;;;;;;;57.33;41.67;;;;;6.69;94.69;99093.75;5042672;28;45586;-72
2022/11/29 02:52:47;;;;;;;;;49.00;41.00;;;;;6.68;94.74;99094.66;5012923;28;45562;-72
2022/11/29 02:55:51;;;;;;;;;52.67;41.33;;;;;6.69;94.54;99085.03;5027715;28;45607;-72
2022/11/29 02:58:25;;;;;;;;;47.67;41.33;;;;;6.71;94.56;99083.22;5001246;28;45328;-72
2022/11/29 03:01:02;;;;;;;;;54.67;42.67;;;;;6.73;95.08;99084.03;4998784;28;45423;-71
2022/11/29 03:03:39;;;;;;;;;49.33;38.67;;;;;6.75;95.03;99082.25;5030617;28;45443;-72
2022/11/29 03:06:19;;;;;;;;;50.67;41.00;;;;;6.79;95.03;99076.03;5002053;28;45461;-72
2022/11/29 03:09:09;;;;;;;;;49.33;39.00;;;;;6.82;95.23;99082.06;5009859;28;45703;-72
2022/11/29 03:11:50;;;;;;;;;50.67;42.67;;;;;6.83;95.62;99080.31;5006441;28;45571;-71
2022/11/29 03:14:36;;;;;;;;;52.67;41.33;;;;;6.82;95.37;99078.59;5004780;28;45444;-72
2022/11/29 03:17:23;;;;;;;;;52.33;42.33;;;;;6.83;95.39;99075.06;5004903;28;45489;-72
2022/11/29 03:19:57;;;;;;;;;52.67;40.33;;;;;6.85;95.43;99075.91;5001456;28;46432;-72
2022/11/29 03:22:50;;;;;;;;;53.00;42.00;;;;;6.85;95.43;99070.66;5001833;28;45587;-72
2022/11/29 03:25:32;;;;;;;;;57.00;46.00;;;;;6.88;95.58;99067.94;5023007;28;45577;-72
2022/11/29 03:28:10;;;;;;;;;47.67;40.33;;;;;6.91;95.42;99062.63;5007195;28;45503;-72
2022/11/29 03:30:38;;;;;;;;;41.33;36.67;;;;;6.95;94.72;99066.88;5034546;28;46368;-72
2022/11/29 03:33:33;;;;;;;;;51.67;41.33;;;;;6.99;95.16;99068.53;5006901;28;45487;-72
2022/11/29 03:36:52;;;;;;;;;53.67;42.00;;;;;7.06;95.01;99059.56;5024460;28;45444;-71
2022/11/29 03:39:29;;;;;;;;;49.33;37.00;;;;;7.10;94.46;99060.38;4992224;28;45442;-72
2022/11/29 03:41:59;;;;;;;;;45.67;38.00;;;;;7.10;94.25;99069.09;5000080;28;48192;-72
2022/11/29 03:44:30;;;;;;;;;39.33;35.00;;;;;7.11;93.76;99059.47;4996539;28;45458;-71
2022/11/29 03:47:03;;;;;;;;;21.33;17.67;;;;;7.11;91.52;99062.94;5001469;28;45563;-71
2022/11/29 03:49:36;;;;;;;;;29.67;26.00;;;;;7.12;92.62;99067.28;5000977;28;45315;-72
2022/11/29 03:52:25;;;;;;;;;45.00;37.00;;;;;7.15;93.33;99069.84;5001220;28;45544;-71
2022/11/29 03:55:06;;;;;;;;;45.00;39.00;;;;;7.17;93.49;99072.41;5001108;28;45294;-72
2022/11/29 03:58:00;;;;;;;;;45.67;38.33;;;;;7.15;93.63;99066.34;5037184;28;45400;-72
2022/11/29 04:00:43;;;;;;;;;44.33;38.33;;;;;7.15;93.29;99055.88;5005151;28;45501;-71
2022/11/29 04:03:30;;;;;;;;;5.75;5.00;;;;;7.17;90.16;99069.78;5006877;28;45511;-72
2022/11/29 04:06:17;;;;;;;;;10.75;10.00;;;;;7.16;90.34;99075.94;5005704;28;45469;-72
2022/11/29 04:09:20;;;;;;;;;24.00;22.33;;;;;7.16;90.41;99062.81;5036630;28;45488;-71
2022/11/29 04:12:07;;;;;;;;;2.00;1.00;;;;;7.15;88.89;99071.59;5007617;28;45472;-72
2022/11/29 04:14:54;;;;;;;;;0.50;0.50;;;;;7.17;87.74;99070.66;4996566;28;48303;-71
2022/11/29 04:17:37;;;;;;;;;4.00;3.25;;;;;7.20;86.30;99088.94;5009098;28;45481;-72
2022/11/29 04:20:35;;;;;;;;;23.33;18.00;;;;;7.24;88.78;99079.19;5011107;28;45500;-72
2022/11/29 04:23:27;;;;;;;;;3.00;2.00;;;;;7.25;86.70;99083.53;4994792;28;45355;-71
2022/11/29 04:26:35;;;;;;;;;12.75;10.00;;;;;7.24;88.43;99079.19;4996549;28;45440;-72
2022/11/29 04:29:25;;;;;;;;;36.00;30.67;;;;;7.24;88.92;99094.94;5003514;28;45796;-72
2022/11/29 04:32:09;;;;;;;;;14.00;14.00;;;;;7.23;87.60;99083.56;5003481;28;45478;-72
2022/11/29 04:34:56;;;;;;;;;27.00;19.67;;;;;7.25;88.28;99096.66;5002126;28;45524;-72
2022/11/29 04:37:36;;;;;;;;;45.67;38.33;;;;;7.25;89.20;99094.88;5000722;28;45427;-72
2022/11/29 04:40:19;;;;;;;;;50.67;41.33;;;;;7.22;87.83;99102.84;5006228;28;45463;-72
2022/11/29 04:42:54;;;;;;;;;16.00;13.75;;;;;7.23;87.17;99087.97;5044129;28;45378;-72
2022/11/29 04:45:51;;;;;;;;;52.67;40.00;;;;;7.25;87.58;99092.25;4996801;28;45369;-72
2022/11/29 04:48:25;;;;;;;;;40.00;35.00;;;;;7.23;89.15;99107.19;4997240;28;45384;-72
2022/11/29 04:50:57;;;;;;;;;1.50;1.50;;;;;7.23;84.63;99107.19;5006470;28;45411;-72
2022/11/29 04:53:38;;;;;;;;;8.00;8.00;;;;;7.23;85.12;99104.56;5017048;28;45391;-73
2022/11/29 04:56:21;;;;;;;;;15.25;9.25;;;;;7.22;86.16;99113.31;5032850;28;45985;-72
2022/11/29 04:58:57;;;;;;;;;3.50;2.25;;;;;7.21;85.52;99111.59;5001690;28;46049;-72
2022/11/29 05:01:41;;;;;;;;;1.00;0.00;;;;;7.18;85.45;99122.19;4999208;28;45452;-72
2022/11/29 05:04:27;;;;;;;;;1.75;1.00;;;;;7.15;85.87;99126.66;5007400;28;45368;-71
2022/11/29 05:07:14;;;;;;;;;1.00;1.00;;;;;7.09;85.52;99116.31;5022389;28;45565;-72
2022/11/29 05:10:01;;;;;;;;;1.00;1.00;;;;;7.05;85.50;99126.00;5007205;28;46073;-72
2022/11/29 05:12:37;;;;;;;;;2.50;2.00;;;;;7.01;86.64;99121.78;5004881;28;45501;-72
2022/11/29 05:15:40;;;;;;;;;2.25;1.75;;;;;6.96;86.54;99121.00;5011728;28;45429;-72
2022/11/29 05:18:25;;;;;;;;;1.00;1.00;;;;;6.93;86.62;99115.84;4997082;28;45676;-71
2022/11/29 05:20:54;;;;;;;;;1.25;1.25;;;;;6.84;87.23;99119.56;4996941;28;46238;-71
2022/11/29 05:23:28;;;;;;;;;1.00;1.00;;;;;6.77;88.40;99125.00;5001350;28;45450;-71
2022/11/29 05:26:08;;;;;;;;;1.00;1.00;;;;;6.70;88.01;99139.16;5001109;28;45593;-72
2022/11/29 05:29:05;;;;;;;;;1.25;1.25;;;;;6.65;88.38;99132.25;5001053;28;45667;-72
2022/11/29 05:31:48;;;;;;;;;0.50;0.50;;;;;6.57;88.38;99147.28;5002800;28;46594;-72
2022/11/29 05:34:35;;;;;;;;;1.00;1.00;;;;;6.56;87.55;99123.75;5000859;28;45422;-72
2022/11/29 05:37:16;;;;;;;;;1.00;1.00;;;;;6.47;88.23;99142.31;5007564;28;45472;-72
2022/11/29 05:39:50;;;;;;;;;3.00;1.00;;;;;6.42;88.22;99131.94;5005525;28;45322;-72
2022/11/29 05:42:40;;;;;;;;;0.00;0.00;;;;;6.36;88.42;99141.72;5009484;28;45535;-72
2022/11/29 05:45:16;;;;;;;;;0.00;0.00;;;;;6.28;88.08;99140.09;5011640;28;45477;-72
2022/11/29 05:47:53;;;;;;;;;0.00;0.00;;;;;6.24;87.61;99140.19;5011011;28;45521;-72
2022/11/29 05:50:32;;;;;;;;;0.00;0.00;;;;;6.26;84.01;99148.88;4994187;28;45395;-72
2022/11/29 05:53:21;;;;;;;;;0.00;0.00;;;;;6.24;86.08;99155.91;5004447;28;46942;-72
2022/11/29 05:56:05;;;;;;;;;1.00;0.00;;;;;6.21;86.41;99143.75;5004596;28;45552;-72
2022/11/29 05:58:44;;;;;;;;;1.00;1.00;;;;;6.16;87.93;99150.00;5000818;28;45456;-72
2022/11/29 06:01:23;;;;;;;;;0.00;0.00;;;;;6.10;87.42;99164.06;5003905;28;45518;-72
2022/11/29 06:04:04;;;;;;;;;1.00;1.00;;;;;6.08;87.61;99160.63;5009952;28;45624;-73
2022/11/29 06:06:41;;;;;;;;;0.00;0.00;;;;;6.04;87.35;99160.72;5011854;28;45394;-73
2022/11/29 06:09:12;;;;;;;;;0.00;0.00;;;;;6.01;87.41;99152.94;5007630;28;45409;-73
2022/11/29 06:11:49;;;;;;;;;0.25;0.25;;;;;5.98;88.47;99150.38;5022354;28;45593;-73
2022/11/29 06:14:39;;;;;;;;;0.00;0.00;;;;;5.94;87.83;99168.75;4996206;28;47074;-73
2022/11/29 06:17:24;;;;;;;;;0.00;0.00;;;;;5.98;86.91;99156.50;5005900;28;45512;-73
2022/11/29 06:20:09;;;;;;;;;0.75;0.75;;;;;5.94;87.91;99160.91;5011877;28;45499;-73
2022/11/29 06:22:41;;;;;;;;;0.00;0.00;;;;;5.92;87.31;99159.22;5037342;28;45468;-73
2022/11/29 06:25:09;;;;;;;;;0.00;0.00;;;;;5.90;86.70;99158.38;5012717;28;46223;-74
2022/11/29 06:27:44;;;;;;;;;0.00;0.00;;;;;5.89;86.31;99164.50;4995958;28;45557;-73
2022/11/29 06:30:19;;;;;;;;;0.00;0.00;;;;;5.90;86.08;99180.19;5007079;28;45374;-73
2022/11/29 06:32:51;;;;;;;;;0.00;0.00;;;;;5.91;86.01;99173.19;5006805;28;45501;-74
2022/11/29 06:35:47;;;;;;;;;0.00;0.00;;;;;5.91;85.83;99155.75;5040170;28;47725;-74
2022/11/29 06:38:27;;;;;;;;;0.00;0.00;;;;;5.92;86.08;99175.78;5045334;28;45496;-74
2022/11/29 06:40:55;;;;;;;;;0.00;0.00;;;;;5.94;85.29;99181.84;5005981;28;45480;-74
2022/11/29 06:43:21;;;;;;;;;0.00;0.00;;;;;5.97;85.59;99174.84;5005207;28;45410;-74
2022/11/29 06:45:53;;;;;;;;;0.00;0.00;;;;;5.97;86.07;99174.84;5005071;28;46454;-73
2022/11/29 06:48:27;;;;;;;;;0.00;0.00;;;;;5.98;85.47;99173.94;5005770;28;45338;-73
2022/11/29 06:51:03;;;;;;;;;0.00;0.00;;;;;6.03;87.16;99190.41;5005213;28;45405;-74
2022/11/29 06:53:56;;;;;;;;;1.00;0.00;;;;;6.01;87.50;99190.44;5003290;28;45427;-75
2022/11/29 06:56:58;;;;;;;;;0.00;0.00;;;;;6.02;87.24;99184.31;5007378;28;45702;-74
2022/11/29 06:59:51;;;;;;;;;0.25;0.00;;;;;5.99;86.89;99184.38;5008468;28;45526;-73
2022/11/29 07:02:27;;;;;;;;;0.00;0.00;;;;;6.00;85.86;99185.25;5003989;28;45405;-73
2022/11/29 07:05:01;;;;;;;;;0.25;0.25;;;;;6.02;85.51;99193.94;5019324;28;45518;-73
2022/11/29 07:07:27;;;;;;;;;0.00;0.00;;;;;6.02;85.16;99178.22;5002145;28;45690;-74
2022/11/29 07:09:59;;;;;;;;;0.00;0.00;;;;;6.04;85.67;99189.50;5026445;28;45585;-72
2022/11/29 07:12:25;;;;;;;;;0.00;0.00;;;;;6.06;84.93;99188.56;5008125;28;45441;-73
2022/11/29 07:14:51;;;;;;;;;0.00;0.00;;;;;6.07;84.82;99190.31;5028503;28;45371;-73
2022/11/29 07:17:19;;;;;;;;;0.00;0.00;;;;;6.08;85.29;99202.50;5003167;28;45457;-72
2022/11/29 07:20:00;;;;;;;;;0.00;0.00;;;;;6.09;84.75;99203.34;4997064;28;45458;-73
2022/11/29 07:22:44;;;;;;;;;1.00;0.00;;;;;6.09;84.60;99203.34;5004524;28;45381;-72
2022/11/29 07:25:13;;;;;;;;;0.25;0.00;;;;;6.09;85.01;99191.13;5008582;28;45600;-73
2022/11/29 07:27:56;;;;;;;;;0.00;0.00;;;;;6.13;84.28;99189.31;5002366;28;46293;-74
2022/11/29 07:30:37;;;;;;;;;0.00;0.00;;;;;6.13;84.38;99199.78;5009093;28;45452;-73
2022/11/29 07:33:30;;;;;;;;;0.00;0.00;;;;;6.11;84.82;99202.44;5005132;28;45504;-74
2022/11/29 07:36:04;;;;;;;;;0.00;0.00;;;;;6.12;84.33;99211.16;5024323;28;45837;-73
2022/11/29 07:39:00;;;;;;;;;0.00;0.00;;;;;6.14;84.68;99196.28;4993016;28;45638;-74
2022/11/29 07:41:42;;;;;;;;;0.00;0.00;;;;;6.13;84.36;99212.88;5032161;28;45534;-73
2022/11/29 07:44:24;;;;;;;;;0.00;0.00;;;;;6.11;84.63;99197.19;5003830;28;45354;-73
2022/11/29 07:46:49;;;;;;;;;0.00;0.00;;;;;6.13;85.08;99186.69;4994315;28;45338;-73
2022/11/29 07:49:15;;;;;;;;;0.00;0.00;;;;;6.14;84.45;99207.63;4993082;28;47387;-73
2022/11/29 07:51:40;;;;;;;;;0.00;0.00;;;;;6.12;84.93;99208.53;5028166;28;45725;-74
2022/11/29 07:54:06;;;;;;;;;0.00;0.00;;;;;6.11;85.09;99199.81;4996758;28;45407;-73
2022/11/29 07:56:31;;;;;;;;;0.25;0.25;;;;;6.09;84.54;99198.97;4997851;28;45462;-72
2022/11/29 07:58:56;;;;;;;;;0.00;0.00;;;;;6.10;85.12;99197.22;4998083;28;46265;-72
2022/11/29 08:01:22;;;;;;;;;0.00;0.00;;;;;6.08;85.39;99207.72;5002380;28;45428;-72
2022/11/29 08:03:47;;;;;;;;;0.00;0.00;;;;;6.06;85.92;99195.56;4999900;28;45446;-72
2022/11/29 08:06:12;;;;;;;;;0.00;0.00;;;;;6.05;84.75;99205.16;4998013;28;45438;-72
2022/11/29 08:08:38;;;;;;;;;0.00;0.00;;;;;6.05;85.69;99205.16;5003467;28;45377;-73
2022/11/29 08:11:12;;;;;;;;;0.00;0.00;;;;;6.03;85.18;99196.50;5021064;28;45399;-73
2022/11/29 08:13:38;;;;;;;;;0.00;0.00;;;;;6.05;84.94;99206.91;5004648;28;45419;-73
2022/11/29 08:16:03;;;;;;;;;0.00;0.00;;;;;6.07;86.11;99198.16;5007891;28;45306;-72
2022/11/29 08:18:29;;;;;;;;;0.00;0.00;;;;;6.09;85.21;99205.97;4997760;28;45491;-74
2022/11/29 08:20:54;;;;;;;;;0.00;0.00;;;;;6.10;85.22;99220.78;5005929;28;45441;-73
2022/11/29 08:23:20;;;;;;;;;0.00;0.00;;;;;6.12;85.60;99198.06;4994991;28;45449;-74
2022/11/29 08:25:45;;;;;;;;;0.00;0.00;;;;;6.14;84.84;99210.22;4994049;28;45485;-73
2022/11/29 08:28:11;;;;;;;;;0.00;0.00;;;;;6.13;85.79;99205.88;4995202;28;45743;-72
2022/11/29 08:30:36;;;;;;;;;0.00;0.00;;;;;6.15;85.06;99217.19;4999711;28;45513;-73
2022/11/29 08:33:03;;;;;;;;;1.00;0.00;;;;;6.17;84.74;99215.41;5004145;28;45456;-72
2022/11/29 08:35:28;;;;;;;;;0.00;0.00;;;;;6.22;84.18;99202.19;5005276;28;45533;-73
2022/11/29 08:37:54;;;;;;;;;0.00;0.00;;;;;6.23;83.70;99212.63;5001013;28;45959;-74
2022/11/29 08:40:19;;;;;;;;;0.00;0.00;;;;;6.26;83.92;99209.97;5007120;28;45359;-74
2022/11/29 08:42:45;;;;;;;;;0.00;0.00;;;;;6.30;83.64;99216.88;5007757;28;45390;-74
2022/11/29 08:45:10;;;;;;;;;0.00;0.00;;;;;6.34;84.22;99216.81;5012433;28;45346;-74
2022/11/29 08:47:37;;;;;;;;;0.00;0.00;;;;;6.37;83.77;99220.19;4997472;28;45334;-74
2022/11/29 08:50:13;;;;;;;;;1.00;0.00;;;;;6.39;83.73;99212.31;5010782;28;45405;-74
2022/11/29 08:55:31;;;;;;;;;0.00;0.00;;;;;6.42;83.08;99234.06;4996370;28;45409;-75
2022/11/29 08:58:06;;;;;;;;;0.00;0.00;;;;;6.44;82.72;99234.03;5003774;28;46667;-74
2022/11/29 09:00:32;;;;;;;;;0.00;0.00;;;;;6.45;83.04;99215.66;4999269;28;45510;-73
2022/11/29 09:03:58;;;;;;;;;0.00;0.00;;;;;6.48;83.76;99226.06;5000815;28;45370;-74
2022/11/29 09:05:43;;;;;;;;;0.25;0.00;;;;;6.50;83.23;99229.53;5007925;28;45507;-74
2022/11/29 09:08:09;;;;;;;;;0.00;0.00;;;;;6.52;83.02;99232.97;5003794;28;46162;-74
2022/11/29 09:10:34;;;;;;;;;0.00;0.00;;;;;6.53;83.04;99237.31;5005863;28;45387;-73
2022/11/29 09:12:59;;;;;;;;;0.00;0.00;;;;;6.56;83.51;99241.59;5008649;28;45503;-74
2022/11/29 09:15:25;;;;;;;;;0.00;0.00;;;;;6.56;82.88;99229.38;5007992;28;45582;-73
2022/11/29 09:17:50;;;;;;;;;0.50;0.00;;;;;6.57;82.51;99236.34;5004265;28;45465;-73
2022/11/29 09:20:16;;;;;;;;;0.00;0.00;;;;;6.57;82.66;99235.47;5009983;28;45413;-72
2022/11/29 09:22:41;;;;;;;;;0.00;0.00;;;;;6.57;83.06;99219.75;5000177;28;45458;-74
2022/11/29 09:25:07;;;;;;;;;0.00;0.00;;;;;6.58;82.69;99240.69;5008949;28;45592;-73
2022/11/29 09:27:32;;;;;;;;;0.00;0.00;;;;;6.59;83.13;99249.41;5032615;28;47020;-74
2022/11/29 09:29:58;;;;;;;;;0.00;0.00;;;;;6.59;82.50;99252.88;4998292;28;45434;-74
2022/11/29 09:32:23;;;;;;;;;0.00;0.00;;;;;6.59;82.91;99247.66;5000710;28;45596;-73
2022/11/29 09:34:49;;;;;;;;;1.25;1.00;;;;;6.60;83.52;99248.50;5001351;28;45355;-74
2022/11/29 09:37:14;;;;;;;;;0.00;0.00;;;;;6.60;84.20;99248.50;5002878;28;46278;-73
2022/11/29 09:39:40;;;;;;;;;0.00;0.00;;;;;6.62;83.74;99246.72;5013461;28;45409;-73
2022/11/29 09:42:21;;;;;;;;;0.00;0.00;;;;;6.63;84.26;99254.56;5012194;28;45388;-72
2022/11/29 09:44:49;;;;;;;;;0.00;0.00;;;;;6.62;84.77;99251.97;4998724;28;45504;-74
2022/11/29 09:47:49;;;;;;;;;0.00;0.00;;;;;6.65;84.64;99254.53;5028802;28;46602;-74
2022/11/29 09:50:30;;;;;;;;;0.00;0.00;;;;;6.67;83.79;99244.88;4997256;28;45573;-74
2022/11/29 09:53:25;;;;;;;;;0.00;0.00;;;;;6.68;84.00;99257.06;5002597;28;45444;-73
2022/11/29 09:56:14;;;;;;;;;1.00;1.00;;;;;6.72;84.15;99250.84;5001500;28;45502;-73
2022/11/29 09:59:07;;;;;;;;;0.00;0.00;;;;;6.70;83.59;99242.19;5034139;28;48254;-73
2022/11/29 10:01:52;;;;;;;;;0.00;0.00;;;;;6.71;83.39;99253.50;4997473;28;45575;-73
2022/11/29 10:04:23;;;;;;;;;0.00;0.00;;;;;6.74;83.07;99243.81;5009045;28;45451;-73
2022/11/29 10:07:13;;;;;;;;;0.00;0.00;;;;;6.78;83.21;99249.84;5005155;28;45502;-73
2022/11/29 10:10:11;;;;;;;;;0.00;0.00;;;;;6.78;82.97;99253.34;5006888;28;46310;-73
2022/11/29 10:12:45;;;;;;;;;0.50;0.00;;;;;6.81;83.87;99236.69;5000657;28;45560;-74
2022/11/29 10:15:21;;;;;;;;;0.00;0.00;;;;;6.84;82.86;99232.25;5013897;28;45451;-73
2022/11/29 10:18:14;;;;;;;;;0.00;0.00;;;;;6.89;83.37;99221.63;5012274;28;45604;-73
2022/11/29 10:20:43;;;;;;;;;1.50;0.00;;;;;6.94;83.58;99227.63;5008770;28;45524;-73
2022/11/29 10:23:23;;;;;;;;;1.00;1.00;;;;;7.02;83.50;99230.09;5006959;28;45465;-73
2022/11/29 10:25:51;;;;;;;;;0.00;0.00;;;;;7.06;83.56;99224.72;4998433;28;45485;-73
2022/11/29 10:28:26;;;;;;;;;0.00;0.00;;;;;7.11;83.09;99238.59;5004495;28;45527;-73
2022/11/29 10:30:54;;;;;;;;;0.00;0.00;;;;;7.12;82.51;99234.19;4998111;28;45518;-76
2022/11/29 10:33:28;;;;;;;;;0.00;0.00;;;;;7.12;81.88;99228.97;5005556;28;45405;-74
2022/11/29 10:36:02;;;;;;;;;0.00;0.00;;;;;7.15;82.63;99228.88;5003463;28;45432;-73
2022/11/29 10:38:28;;;;;;;;;0.00;0.00;;;;;7.14;82.29;99230.66;5008253;28;45425;-73
2022/11/29 10:41:01;;;;;;;;;0.00;0.00;;;;;7.16;82.12;99234.09;5004529;28;46313;-73
2022/11/29 10:43:27;;;;;;;;;0.00;0.00;;;;;7.14;81.21;99227.16;5010206;28;45452;-74
2022/11/29 10:45:54;;;;;;;;;0.00;0.00;;;;;7.13;80.96;99226.31;5006980;28;45495;-73
2022/11/29 10:48:24;;;;;;;;;0.00;0.00;;;;;7.15;81.93;99227.13;5027602;28;45627;-74
2022/11/29 10:50:51;;;;;;;;;0.00;0.00;;;;;7.17;82.14;99221.84;4994553;28;45398;-74
2022/11/29 10:53:31;;;;;;;;;0.00;0.00;;;;;7.19;81.19;99217.44;4999402;28;45536;-74
2022/11/29 10:56:17;;;;;;;;;0.00;0.00;;;;;7.21;81.30;99221.72;5008663;28;45444;-72
2022/11/29 10:59:06;;;;;;;;;0.00;0.00;;;;;7.23;81.33;99227.78;5032022;28;45552;-71
2022/11/29 11:01:37;;;;;;;;;0.00;0.00;;;;;7.24;82.00;99226.03;5027349;28;46752;-74
2022/11/29 11:04:06;;;;;;;;;0.75;0.00;;;;;7.26;82.15;99224.22;5004607;28;45411;-74
2022/11/29 11:06:55;;;;;;;;;0.50;0.00;;;;;7.28;81.89;99218.06;5020387;28;45488;-74
2022/11/29 11:09:46;;;;;;;;;0.50;0.00;;;;;7.30;81.24;99218.88;5007017;28;45530;-74
2022/11/29 11:12:14;;;;;;;;;0.00;0.00;;;;;7.31;81.21;99210.13;5000132;28;45488;-74
2022/11/29 11:14:41;;;;;;;;;0.00;0.00;;;;;7.32;79.18;99211.84;5012451;28;45480;-75
2022/11/29 11:17:26;;;;;;;;;0.00;0.00;;;;;7.33;80.45;99204.84;5003939;28;45491;-72
2022/11/29 11:20:03;;;;;;;;;0.00;0.00;;;;;7.36;80.88;99215.25;5013933;28;45310;-72
2022/11/29 11:22:31;;;;;;;;;2.00;1.00;;;;;7.36;80.46;99196.88;4996929;28;46424;-73
2022/11/29 11:25:04;;;;;;;;;0.00;0.00;;;;;7.40;80.47;99209.00;4996910;28;45451;-74
2022/11/29 11:27:38;;;;;;;;;0.50;0.50;;;;;7.43;81.01;99192.31;5016351;28;45443;-73
2022/11/29 11:30:17;;;;;;;;;0.00;0.00;;;;;7.51;82.45;99200.88;5001313;28;45721;-72
2022/11/29 11:33:14;;;;;;;;;1.00;1.00;;;;;7.58;81.66;99199.78;4999863;28;46200;-74
2022/11/29 11:35:40;;;;;;;;;0.00;0.00;;;;;7.63;82.19;99201.41;5000367;28;45414;-73
2022/11/29 11:38:14;;;;;;;;;0.00;0.00;;;;;7.65;80.73;99198.72;5003039;28;45493;-72
2022/11/29 11:40:40;;;;;;;;;4.00;3.50;;;;;7.70;81.40;99202.97;5005595;28;45385;-73
2022/11/29 11:43:19;;;;;;;;;18.00;12.67;;;;;7.79;83.61;99195.72;5012466;28;46770;-73
2022/11/29 11:45:52;;;;;;;;;17.67;15.33;;;;;7.91;84.28;99196.25;5001541;28;45452;-73
2022/11/29 11:48:18;;;;;;;;;3.50;3.25;;;;;7.98;81.77;99187.31;5011051;28;45331;-74
2022/11/29 11:50:55;;;;;;;;;4.25;4.00;;;;;8.03;82.23;99188.03;4997501;28;45504;-72
2022/11/29 11:53:35;;;;;;;;;17.00;16.00;;;;;8.12;84.02;99191.28;4997519;28;46209;-72
2022/11/29 11:56:07;;;;;;;;;38.33;30.33;;;;;8.21;84.50;99191.03;5001919;28;45397;-73
2022/11/29 11:58:38;;;;;;;;;4.25;2.25;;;;;8.24;83.00;99186.53;4998136;28;45385;-73
2022/11/29 12:01:23;;;;;;;;;0.50;0.50;;;;;8.19;79.72;99193.69;5002714;28;45395;-74
2022/11/29 12:04:05;;;;;;;;;3.00;3.00;;;;;8.11;80.34;99179.06;5002578;28;46142;-73
2022/11/29 12:06:45;;;;;;;;;0.00;0.00;;;;;8.06;78.74;99187.91;5006636;28;45412;-73
2022/11/29 12:09:21;;;;;;;;;2.50;2.50;;;;;8.00;79.66;99177.63;5006073;28;45457;-74
2022/11/29 12:11:50;;;;;;;;;0.00;0.00;;;;;8.03;79.09;99177.53;5016196;28;45414;-74
2022/11/29 12:14:46;;;;;;;;;5.00;4.00;;;;;8.06;80.73;99182.66;5000794;28;45744;-74
2022/11/29 12:17:25;;;;;;;;;16.00;14.33;;;;;8.18;82.83;99183.25;5018318;28;45493;-74